Time;durP1;ratioP1;P1;durP2;ratioP2;P2;SDS_P1;SDS_P2;PMS_P1;PMS_P2;Temp;Humidity;BMP_temperature;BMP_pressure;BME280_temperature;BME280_humidity;BME280_pressure;Samples;Min_cycle;Max_cycle;Signal;HPM_P1;HPM_P2
2022/06/25 00:01:03;;;;;;;1.92;0.75;;;;;;;;;;5021556;28;20033;-70
2022/06/25 00:03:28;;;;;;;0.70;0.70;;;;;;;;;;5020622;28;20120;-70
2022/06/25 00:05:53;;;;;;;0.60;0.60;;;;;;;;;;5021002;28;20136;-70
2022/06/25 00:08:19;;;;;;;3.40;0.68;;;;;;;;;;5021698;28;20083;-71
2022/06/25 00:10:44;;;;;;;2.28;0.57;;;;;;;;;;5019471;28;20044;-70
2022/06/25 00:13:10;;;;;;;0.95;0.65;;;;;;;;;;5019303;28;20478;-71
2022/06/25 00:15:35;;;;;;;1.95;0.50;;;;;;;;;;5020610;28;20486;-75
2022/06/25 00:18:01;;;;;;;1.88;1.13;;;;;;;;;;5021588;28;20069;-70
2022/06/25 00:20:26;;;;;;;1.48;0.40;;;;;;;;;;5020230;28;20056;-74
2022/06/25 00:22:52;;;;;;;1.02;0.55;;;;;;;;;;5021278;28;20061;-69
2022/06/25 00:25:17;;;;;;;5.28;0.60;;;;;;;;;;5020672;28;20909;-71
2022/06/25 00:27:42;;;;;;;2.55;0.68;;;;;;;;;;5021575;28;20615;-70
2022/06/25 00:30:08;;;;;;;1.08;0.70;;;;;;;;;;5019339;28;20033;-70
2022/06/25 00:32:34;;;;;;;1.73;0.70;;;;;;;;;;5020311;28;20088;-72
2022/06/25 00:35:00;;;;;;;1.23;0.60;;;;;;;;;;5019083;28;20079;-72
2022/06/25 00:37:25;;;;;;;2.13;0.88;;;;;;;;;;5020055;28;20037;-69
2022/06/25 00:39:51;;;;;;;1.67;0.90;;;;;;;;;;5020335;28;20040;-71
2022/06/25 00:42:16;;;;;;;4.25;0.90;;;;;;;;;;5020294;28;20079;-72
2022/06/25 00:44:42;;;;;;;1.92;0.70;;;;;;;;;;5018838;28;20178;-74
2022/06/25 00:47:10;;;;;;;3.15;1.00;;;;;;;;;;5020931;28;20033;-74
2022/06/25 00:49:36;;;;;;;14.57;0.95;;;;;;;;;;5021081;28;20047;-75
2022/06/25 00:52:17;;;;;;;5.75;0.98;;;;;;;;;;5020786;28;20045;-73
2022/06/25 00:54:50;;;;;;;6.88;1.58;;;;;;;;;;5019694;28;20039;-72
2022/06/25 00:57:26;;;;;;;0.88;0.65;;;;;;;;;;5021020;28;20116;-72
2022/06/25 01:00:02;;;;;;;1.77;0.70;;;;;;;;;;5019327;28;20128;-69
2022/06/25 01:02:28;;;;;;;3.17;1.00;;;;;;;;;;5020996;28;21019;-74
2022/06/25 01:04:53;;;;;;;1.60;0.75;;;;;;;;;;5019647;28;20030;-71
2022/06/25 01:07:19;;;;;;;0.98;0.70;;;;;;;;;;5020905;28;20029;-74
2022/06/25 01:09:46;;;;;;;1.88;1.00;;;;;;;;;;5020890;28;20083;-69
2022/06/25 01:12:12;;;;;;;3.88;1.10;;;;;;;;;;5018567;28;20474;-69
2022/06/25 01:14:39;;;;;;;5.03;0.90;;;;;;;;;;5018739;28;20171;-69
2022/06/25 01:17:09;;;;;;;2.92;0.95;;;;;;;;;;5018764;28;20033;-69
2022/06/25 01:19:36;;;;;;;0.80;0.80;;;;;;;;;;5019508;28;20059;-70
2022/06/25 01:22:08;;;;;;;0.73;0.60;;;;;;;;;;5018881;28;20038;-70
2022/06/25 01:24:34;;;;;;;3.10;1.15;;;;;;;;;;5018753;28;20037;-70
2022/06/25 01:27:00;;;;;;;0.60;0.60;;;;;;;;;;5019787;28;20592;-70
2022/06/25 01:29:25;;;;;;;1.95;0.70;;;;;;;;;;5019478;28;20042;-70
2022/06/25 01:31:52;;;;;;;1.90;0.80;;;;;;;;;;5019080;28;20038;-71
2022/06/25 01:34:18;;;;;;;1.15;0.70;;;;;;;;;;5018716;28;20583;-70
2022/06/25 01:36:43;;;;;;;0.80;0.80;;;;;;;;;;5020445;28;20079;-70
2022/06/25 01:39:09;;;;;;;0.60;0.60;;;;;;;;;;5018539;28;20556;-70
2022/06/25 01:41:35;;;;;;;1.90;0.93;;;;;;;;;;5018960;28;20064;-70
2022/06/25 01:44:00;;;;;;;1.30;0.75;;;;;;;;;;5018760;28;20037;-70
2022/06/25 01:46:26;;;;;;;1.77;1.00;;;;;;;;;;5018970;28;20060;-70
2022/06/25 01:48:52;;;;;;;2.15;0.93;;;;;;;;;;5019690;28;20076;-73
2022/06/25 01:51:18;;;;;;;1.77;0.93;;;;;;;;;;5019327;28;20524;-70
2022/06/25 01:53:46;;;;;;;2.65;1.10;;;;;;;;;;5006767;28;20064;-71
2022/06/25 01:56:12;;;;;;;2.70;0.90;;;;;;;;;;5023706;28;20179;-70
2022/06/25 01:58:38;;;;;;;2.75;1.10;;;;;;;;;;5016554;28;20090;-70
2022/06/25 02:01:04;;;;;;;1.98;1.10;;;;;;;;;;5021209;28;20033;-71
2022/06/25 02:03:30;;;;;;;0.90;0.90;;;;;;;;;;5022918;28;20037;-70
2022/06/25 02:05:59;;;;;;;2.63;1.08;;;;;;;;;;5021765;28;20038;-71
2022/06/25 02:08:33;;;;;;;4.63;1.15;;;;;;;;;;5023652;28;20156;-71
2022/06/25 02:10:59;;;;;;;1.30;0.93;;;;;;;;;;5022515;28;20040;-70
2022/06/25 02:13:25;;;;;;;6.97;1.20;;;;;;;;;;5019269;28;20629;-71
2022/06/25 02:15:52;;;;;;;2.25;0.80;;;;;;;;;;5023126;28;20108;-70
2022/06/25 02:18:17;;;;;;;2.75;1.10;;;;;;;;;;5022277;28;20033;-71
2022/06/25 02:20:43;;;;;;;8.57;1.42;;;;;;;;;;5022619;28;20043;-70
2022/06/25 02:23:09;;;;;;;1.58;1.10;;;;;;;;;;5022604;28;20033;-70
2022/06/25 02:25:35;;;;;;;2.45;1.20;;;;;;;;;;5021577;28;20555;-71
2022/06/25 02:28:00;;;;;;;8.13;1.35;;;;;;;;;;5023484;28;20041;-70
2022/06/25 02:30:28;;;;;;;2.90;1.00;;;;;;;;;;5023184;28;20027;-70
2022/06/25 02:32:54;;;;;;;3.47;1.10;;;;;;;;;;5022785;28;20033;-70
2022/06/25 02:35:19;;;;;;;2.67;0.95;;;;;;;;;;5023801;28;20560;-72
2022/06/25 02:37:45;;;;;;;7.18;1.48;;;;;;;;;;5022522;28;20030;-71
2022/06/25 02:40:13;;;;;;;3.58;1.00;;;;;;;;;;5022094;28;20406;-69
2022/06/25 02:42:41;;;;;;;3.05;0.93;;;;;;;;;;5021674;28;20098;-70
2022/06/25 02:45:08;;;;;;;0.88;0.85;;;;;;;;;;5020230;28;20037;-75
2022/06/25 02:47:35;;;;;;;7.65;1.00;;;;;;;;;;5021857;28;20128;-73
2022/06/25 02:50:08;;;;;;;11.88;1.02;;;;;;;;;;5023012;28;20037;-72
2022/06/25 02:52:34;;;;;;;5.72;1.10;;;;;;;;;;5005452;28;20041;-70
2022/06/25 02:55:00;;;;;;;3.53;1.00;;;;;;;;;;5020003;28;20037;-69
2022/06/25 03:00:20;;;;;;;3.58;0.90;;;;;;;;;;5038205;28;20044;-70
2022/06/25 03:02:45;;;;;;;5.38;1.15;;;;;;;;;;5021028;28;20037;-71
2022/06/25 03:05:11;;;;;;;4.15;1.10;;;;;;;;;;5003816;28;20033;-70
2022/06/25 03:07:39;;;;;;;4.63;2.70;;;;;;;;;;5021555;28;20041;-70
2022/06/25 03:10:05;;;;;;;1.25;0.98;;;;;;;;;;5021433;28;20108;-70
2022/06/25 03:12:31;;;;;;;2.42;1.23;;;;;;;;;;5018196;28;20037;-71
2022/06/25 03:15:11;;;;;;;1.20;1.10;;;;;;;;;;5020649;28;20034;-69
2022/06/25 03:17:36;;;;;;;2.58;1.00;;;;;;;;;;5020713;28;20088;-68
2022/06/25 03:20:20;;;;;;;1.48;1.27;;;;;;;;;;5022151;28;20052;-69
2022/06/25 03:22:51;;;;;;;1.03;0.90;;;;;;;;;;5020730;28;20064;-71
2022/06/25 03:25:17;;;;;;;1.05;0.95;;;;;;;;;;5020216;28;20284;-70
2022/06/25 03:27:44;;;;;;;1.67;1.20;;;;;;;;;;5019646;28;20037;-71
2022/06/25 03:30:14;;;;;;;3.45;1.05;;;;;;;;;;5020457;28;20120;-70
2022/06/25 03:32:40;;;;;;;1.50;1.02;;;;;;;;;;5020540;28;20033;-71
2022/06/25 03:35:24;;;;;;;2.08;1.00;;;;;;;;;;5021943;28;20161;-69
2022/06/25 03:38:16;;;;;;;3.60;1.10;;;;;;;;;;5019221;28;20128;-71
2022/06/25 03:40:43;;;;;;;2.63;1.30;;;;;;;;;;5020892;28;20371;-70
2022/06/25 03:43:10;;;;;;;6.93;1.25;;;;;;;;;;5003951;28;20087;-70
2022/06/25 03:45:38;;;;;;;4.63;1.20;;;;;;;;;;5000601;28;20359;-73
2022/06/25 03:48:05;;;;;;;3.15;1.33;;;;;;;;;;5020801;28;20035;-69
2022/06/25 03:50:35;;;;;;;6.22;1.25;;;;;;;;;;5019915;28;20033;-70
2022/06/25 03:53:01;;;;;;;2.72;1.08;;;;;;;;;;5020015;28;20037;-70
2022/06/25 03:55:27;;;;;;;2.60;1.15;;;;;;;;;;5017788;28;20457;-76
2022/06/25 03:57:52;;;;;;;8.20;1.20;;;;;;;;;;5019359;28;20021;-70
2022/06/25 04:00:22;;;;;;;2.30;1.20;;;;;;;;;;5019159;28;20506;-70
2022/06/25 04:02:59;;;;;;;4.90;1.27;;;;;;;;;;5020135;28;20052;-70
2022/06/25 04:05:28;;;;;;;3.97;1.00;;;;;;;;;;5019513;28;20498;-71
2022/06/25 04:07:57;;;;;;;3.22;1.10;;;;;;;;;;5016774;28;20068;-70
2022/06/25 04:10:23;;;;;;;2.63;1.40;;;;;;;;;;5016508;28;20073;-70
2022/06/25 04:12:49;;;;;;;8.02;1.10;;;;;;;;;;5018544;28;20041;-70
2022/06/25 04:15:16;;;;;;;1.05;0.90;;;;;;;;;;5019006;28;20032;-70
2022/06/25 04:17:42;;;;;;;1.50;1.30;;;;;;;;;;5019904;28;20033;-70
2022/06/25 04:20:08;;;;;;;1.25;0.90;;;;;;;;;;5019401;28;20565;-70
2022/06/25 04:22:34;;;;;;;3.83;0.93;;;;;;;;;;5020479;28;20053;-70
2022/06/25 04:25:01;;;;;;;3.63;0.80;;;;;;;;;;5018671;28;20056;-70
2022/06/25 04:30:11;;;;;;;3.00;0.80;;;;;;;;;;5018703;28;20037;-70
2022/06/25 04:32:39;;;;;;;3.10;1.02;;;;;;;;;;5019444;28;20041;-70
2022/06/25 04:35:15;;;;;;;6.32;1.00;;;;;;;;;;5018101;28;20037;-70
2022/06/25 04:37:43;;;;;;;4.05;0.85;;;;;;;;;;5019129;28;20088;-70
2022/06/25 04:40:11;;;;;;;2.40;0.88;;;;;;;;;;5019597;28;20043;-70
2022/06/25 04:42:38;;;;;;;2.80;0.70;;;;;;;;;;5019460;28;20493;-70
2022/06/25 04:45:04;;;;;;;2.28;0.70;;;;;;;;;;5001695;28;20048;-70
2022/06/25 04:47:35;;;;;;;6.95;0.90;;;;;;;;;;5019436;28;20033;-70
2022/06/25 04:50:21;;;;;;;6.53;0.88;;;;;;;;;;5019166;28;20088;-70
2022/06/25 04:52:46;;;;;;;2.17;0.70;;;;;;;;;;5019338;28;20569;-71
2022/06/25 04:55:13;;;;;;;0.90;0.70;;;;;;;;;;5019715;28;20044;-70
2022/06/25 04:57:38;;;;;;;4.00;1.05;;;;;;;;;;5020648;28;20037;-76
2022/06/25 05:00:27;;;;;;;6.18;0.77;;;;;;;;;;5020217;28;20043;-70
2022/06/25 05:02:52;;;;;;;7.95;0.90;;;;;;;;;;5019352;28;20348;-69
2022/06/25 05:05:18;;;;;;;2.47;0.70;;;;;;;;;;5018617;28;20034;-70
2022/06/25 05:07:44;;;;;;;4.68;0.65;;;;;;;;;;5018344;28;20048;-73
2022/06/25 05:10:10;;;;;;;4.93;0.88;;;;;;;;;;5018873;28;20033;-71
2022/06/25 05:15:21;;;;;;;1.23;0.63;;;;;;;;;;5012027;28;20040;-71
2022/06/25 05:17:47;;;;;;;1.42;0.60;;;;;;;;;;5019781;28;20034;-68
2022/06/25 05:20:16;;;;;;;7.97;0.77;;;;;;;;;;5020386;28;20025;-70
2022/06/25 05:22:42;;;;;;;3.60;0.75;;;;;;;;;;5020389;28;20084;-70
2022/06/25 05:25:08;;;;;;;4.30;0.60;;;;;;;;;;5018594;28;20026;-69
2022/06/25 05:27:34;;;;;;;2.35;0.60;;;;;;;;;;5020642;28;20505;-72
2022/06/25 05:29:59;;;;;;;0.65;0.43;;;;;;;;;;5021022;28;20041;-70
2022/06/25 05:32:25;;;;;;;4.50;0.60;;;;;;;;;;5021888;28;20053;-70
2022/06/25 05:34:50;;;;;;;7.53;0.47;;;;;;;;;;5021708;28;20037;-71
2022/06/25 05:37:16;;;;;;;1.05;0.60;;;;;;;;;;5021913;28;20090;-68
2022/06/25 05:39:42;;;;;;;3.78;0.50;;;;;;;;;;5021235;28;20065;-71
2022/06/25 05:42:07;;;;;;;1.15;0.52;;;;;;;;;;5022463;28;20047;-71
2022/06/25 05:44:33;;;;;;;2.60;1.15;;;;;;;;;;5022537;28;20395;-71
2022/06/25 05:46:58;;;;;;;1.63;0.70;;;;;;;;;;5023041;28;20034;-70
2022/06/25 05:49:24;;;;;;;8.98;0.70;;;;;;;;;;5022826;28;20040;-68
2022/06/25 05:51:49;;;;;;;2.55;0.70;;;;;;;;;;5022726;28;20414;-72
2022/06/25 05:54:16;;;;;;;6.47;0.63;;;;;;;;;;5023936;28;20070;-69
2022/06/25 05:56:41;;;;;;;2.97;0.55;;;;;;;;;;5022878;28;20175;-69
2022/06/25 05:59:07;;;;;;;6.15;0.70;;;;;;;;;;5022667;28;20117;-71
2022/06/25 06:01:32;;;;;;;1.67;0.60;;;;;;;;;;5021956;28;20589;-70
2022/06/25 06:03:57;;;;;;;3.25;0.52;;;;;;;;;;5022277;28;20489;-72
2022/06/25 06:06:23;;;;;;;3.40;0.52;;;;;;;;;;5022165;28;20122;-69
2022/06/25 06:08:48;;;;;;;1.15;0.40;;;;;;;;;;5022455;28;20032;-70
2022/06/25 06:11:14;;;;;;;2.80;0.60;;;;;;;;;;5018089;28;20045;-71
2022/06/25 06:13:39;;;;;;;0.93;0.50;;;;;;;;;;5021972;28;20041;-69
2022/06/25 06:16:04;;;;;;;1.38;0.55;;;;;;;;;;5021917;28;20033;-69
2022/06/25 06:18:30;;;;;;;2.40;0.60;;;;;;;;;;5022991;28;20049;-71
2022/06/25 06:20:55;;;;;;;3.13;0.70;;;;;;;;;;5022893;28;20152;-70
2022/06/25 06:23:21;;;;;;;0.75;0.32;;;;;;;;;;5021809;28;20045;-71
2022/06/25 06:25:46;;;;;;;0.30;0.30;;;;;;;;;;5022443;28;20555;-75
2022/06/25 06:28:12;;;;;;;3.42;0.47;;;;;;;;;;5022892;28;20030;-70
2022/06/25 06:30:37;;;;;;;1.95;0.60;;;;;;;;;;5023174;28;20059;-72
2022/06/25 06:33:03;;;;;;;0.40;0.40;;;;;;;;;;5022925;28;20044;-73
2022/06/25 06:35:28;;;;;;;0.40;0.30;;;;;;;;;;5020770;28;20033;-74
2022/06/25 06:37:54;;;;;;;4.22;0.60;;;;;;;;;;5019386;28;20033;-72
2022/06/25 06:40:19;;;;;;;0.82;0.60;;;;;;;;;;5022775;28;20059;-70
2022/06/25 06:42:45;;;;;;;2.55;0.73;;;;;;;;;;5023036;28;20033;-69
2022/06/25 06:45:10;;;;;;;0.30;0.30;;;;;;;;;;5021510;28;20091;-72
2022/06/25 06:47:36;;;;;;;2.13;0.40;;;;;;;;;;5022071;28;20091;-70
2022/06/25 06:50:01;;;;;;;2.65;0.40;;;;;;;;;;5021816;28;21464;-74
2022/06/25 06:52:27;;;;;;;2.05;0.35;;;;;;;;;;5019493;28;20120;-75
2022/06/25 06:54:53;;;;;;;3.30;0.40;;;;;;;;;;5021103;28;20084;-76
2022/06/25 06:57:18;;;;;;;0.68;0.38;;;;;;;;;;5019534;28;20454;-75
2022/06/25 06:59:43;;;;;;;0.40;0.30;;;;;;;;;;5022183;28;20470;-72
2022/06/25 07:02:09;;;;;;;0.90;0.28;;;;;;;;;;5019886;28;20038;-72
2022/06/25 07:04:34;;;;;;;1.92;0.60;;;;;;;;;;5019667;28;20041;-72
2022/06/25 07:07:00;;;;;;;0.75;0.30;;;;;;;;;;5021267;28;20056;-72
2022/06/25 07:09:26;;;;;;;0.22;0.22;;;;;;;;;;5019578;28;20048;-72
2022/06/25 07:11:51;;;;;;;0.88;0.40;;;;;;;;;;5020727;28;20129;-72
2022/06/25 07:14:17;;;;;;;2.50;0.40;;;;;;;;;;5020444;28;20052;-71
2022/06/25 07:16:42;;;;;;;3.13;0.47;;;;;;;;;;5018385;28;20370;-72
2022/06/25 07:19:10;;;;;;;1.02;0.47;;;;;;;;;;5019251;28;20033;-72
2022/06/25 07:21:35;;;;;;;1.85;0.40;;;;;;;;;;5019062;28;20091;-72
2022/06/25 07:24:01;;;;;;;0.30;0.30;;;;;;;;;;5019326;28;20172;-72
2022/06/25 07:26:26;;;;;;;0.75;0.40;;;;;;;;;;5018780;28;20041;-72
2022/06/25 07:28:53;;;;;;;0.95;0.50;;;;;;;;;;5018556;28;20618;-72
2022/06/25 07:31:19;;;;;;;0.80;0.40;;;;;;;;;;5019783;28;20041;-72
2022/06/25 07:33:44;;;;;;;0.30;0.30;;;;;;;;;;5020582;28;20060;-71
2022/06/25 07:36:10;;;;;;;0.95;0.35;;;;;;;;;;5020522;28;20252;-72
2022/06/25 07:38:36;;;;;;;0.75;0.45;;;;;;;;;;5020599;28;20048;-72
2022/06/25 07:41:02;;;;;;;6.50;0.40;;;;;;;;;;5020068;28;20045;-72
2022/06/25 07:43:27;;;;;;;1.60;0.63;;;;;;;;;;5018951;28;20160;-72
2022/06/25 07:45:54;;;;;;;1.00;0.55;;;;;;;;;;5019320;28;20025;-72
2022/06/25 07:48:20;;;;;;;1.30;0.45;;;;;;;;;;5021100;28;20372;-72
2022/06/25 07:53:30;;;;;;;0.45;0.45;;;;;;;;;;5020178;28;20072;-72
2022/06/25 07:55:55;;;;;;;1.35;0.40;;;;;;;;;;5019558;28;20565;-72
2022/06/25 07:58:23;;;;;;;1.02;0.50;;;;;;;;;;5020283;28;20056;-72
2022/06/25 08:00:50;;;;;;;1.17;0.40;;;;;;;;;;5019844;28;20039;-72
2022/06/25 08:03:15;;;;;;;1.00;0.63;;;;;;;;;;5018429;28;20049;-72
2022/06/25 08:05:41;;;;;;;2.85;0.60;;;;;;;;;;5019434;28;20036;-72
2022/06/25 08:08:06;;;;;;;0.55;0.40;;;;;;;;;;5019134;28;20124;-72
2022/06/25 08:10:32;;;;;;;1.05;0.38;;;;;;;;;;5007586;28;20045;-73
2022/06/25 08:12:57;;;;;;;0.55;0.47;;;;;;;;;;5017947;28;20051;-72
2022/06/25 08:15:22;;;;;;;0.77;0.65;;;;;;;;;;5018001;28;20140;-72
2022/06/25 08:17:48;;;;;;;0.40;0.40;;;;;;;;;;5018447;28;20068;-72
2022/06/25 08:20:13;;;;;;;0.75;0.65;;;;;;;;;;5019343;28;20498;-72
2022/06/25 08:22:39;;;;;;;2.72;0.60;;;;;;;;;;5017934;28;21046;-72
2022/06/25 08:25:07;;;;;;;3.10;0.50;;;;;;;;;;5015822;28;20053;-72
2022/06/25 08:27:33;;;;;;;2.25;0.50;;;;;;;;;;5018705;28;20044;-73
2022/06/25 08:30:00;;;;;;;2.25;0.47;;;;;;;;;;5019795;28;20085;-73
2022/06/25 08:32:26;;;;;;;0.75;0.40;;;;;;;;;;5021049;28;20045;-72
2022/06/25 08:34:51;;;;;;;0.40;0.40;;;;;;;;;;5020795;28;20044;-72
2022/06/25 08:37:17;;;;;;;1.05;0.40;;;;;;;;;;5020567;28;20948;-72
2022/06/25 08:39:42;;;;;;;1.05;0.40;;;;;;;;;;5018325;28;20033;-72
2022/06/25 08:42:07;;;;;;;2.47;0.40;;;;;;;;;;5018133;28;20452;-72
2022/06/25 08:44:33;;;;;;;0.30;0.30;;;;;;;;;;5017817;28;20052;-72
2022/06/25 08:46:59;;;;;;;0.43;0.40;;;;;;;;;;5016708;28;20073;-71
2022/06/25 08:49:26;;;;;;;1.00;0.60;;;;;;;;;;5020147;28;20049;-71
2022/06/25 08:51:57;;;;;;;1.30;0.63;;;;;;;;;;5018805;28;20033;-71
2022/06/25 08:54:24;;;;;;;0.40;0.40;;;;;;;;;;5017931;28;21171;-70
2022/06/25 08:56:50;;;;;;;0.70;0.32;;;;;;;;;;5019268;28;20056;-70
2022/06/25 08:59:17;;;;;;;0.50;0.40;;;;;;;;;;5019953;28;20065;-71
2022/06/25 09:01:43;;;;;;;0.52;0.50;;;;;;;;;;5019836;28;20094;-71
2022/06/25 09:04:08;;;;;;;1.45;0.43;;;;;;;;;;5020219;28;20041;-71
2022/06/25 09:06:34;;;;;;;3.58;0.47;;;;;;;;;;5020685;28;20041;-74
2022/06/25 09:09:16;;;;;;;0.50;0.50;;;;;;;;;;5021458;28;20544;-71
2022/06/25 09:11:55;;;;;;;2.30;0.40;;;;;;;;;;5022164;28;20060;-70
2022/06/25 09:14:28;;;;;;;1.10;0.40;;;;;;;;;;5019063;28;20072;-70
2022/06/25 09:17:04;;;;;;;2.35;0.60;;;;;;;;;;5019261;28;20037;-71
2022/06/25 09:19:36;;;;;;;0.40;0.40;;;;;;;;;;5019641;28;20482;-70
2022/06/25 09:22:07;;;;;;;1.13;0.52;;;;;;;;;;5019764;28;20030;-71
2022/06/25 09:24:45;;;;;;;5.40;1.00;;;;;;;;;;5019449;28;20041;-71
2022/06/25 09:27:11;;;;;;;0.40;0.40;;;;;;;;;;5017491;28;20739;-73
2022/06/25 09:29:45;;;;;;;1.05;0.57;;;;;;;;;;5015263;28;20060;-71
2022/06/25 09:32:13;;;;;;;0.52;0.52;;;;;;;;;;5016836;28;20502;-72
2022/06/25 09:34:39;;;;;;;0.93;0.50;;;;;;;;;;5018713;28;20038;-70
2022/06/25 09:37:17;;;;;;;0.60;0.60;;;;;;;;;;5017830;28;20079;-72
2022/06/25 09:39:45;;;;;;;0.40;0.35;;;;;;;;;;5019416;28;20375;-71
2022/06/25 09:42:26;;;;;;;0.80;0.50;;;;;;;;;;5018583;28;20029;-71
2022/06/25 09:45:20;;;;;;;0.40;0.40;;;;;;;;;;5018827;28;20043;-68
2022/06/25 09:47:46;;;;;;;1.27;0.40;;;;;;;;;;5010926;28;20056;-70
2022/06/25 09:50:16;;;;;;;0.85;0.50;;;;;;;;;;5016684;28;20041;-70
2022/06/25 09:53:02;;;;;;;2.22;0.40;;;;;;;;;;5020046;28;20598;-69
2022/06/25 09:55:37;;;;;;;0.65;0.60;;;;;;;;;;5018582;28;20048;-70
2022/06/25 09:58:03;;;;;;;0.40;0.40;;;;;;;;;;5018063;28;20064;-69
2022/06/25 10:00:30;;;;;;;2.58;0.65;;;;;;;;;;5019199;28;20041;-69
2022/06/25 10:02:57;;;;;;;0.93;0.30;;;;;;;;;;5020266;28;20046;-70
2022/06/25 10:05:33;;;;;;;0.52;0.45;;;;;;;;;;5020006;28;20046;-71
2022/06/25 10:08:00;;;;;;;0.95;0.40;;;;;;;;;;5019205;28;20069;-71
2022/06/25 10:10:28;;;;;;;3.38;0.95;;;;;;;;;;5018535;28;20073;-69
2022/06/25 10:12:54;;;;;;;1.15;0.60;;;;;;;;;;5019636;28;20037;-70
2022/06/25 10:15:23;;;;;;;1.02;0.50;;;;;;;;;;5021301;28;20128;-72
2022/06/25 10:17:51;;;;;;;1.60;0.75;;;;;;;;;;5022126;28;20060;-70
2022/06/25 10:20:18;;;;;;;2.47;0.77;;;;;;;;;;5022581;28;20041;-71
2022/06/25 10:22:45;;;;;;;1.83;0.75;;;;;;;;;;5022927;28;20500;-72
2022/06/25 10:25:13;;;;;;;2.15;0.40;;;;;;;;;;5023123;28;20037;-72
2022/06/25 10:27:44;;;;;;;1.13;0.40;;;;;;;;;;5021634;28;20037;-70
2022/06/25 10:30:12;;;;;;;1.42;0.40;;;;;;;;;;5023125;28;20500;-70
2022/06/25 10:32:43;;;;;;;0.73;0.50;;;;;;;;;;5020479;28;20081;-71
2022/06/25 10:35:09;;;;;;;;;;;;;;;;;;5020646;28;20542;-70
2022/06/25 10:38:03;;;;;;;0.50;0.50;;;;;;;;;;5022663;28;20004;-70
2022/06/25 10:40:30;;;;;;;0.55;0.40;;;;;;;;;;5015381;28;20034;-70
2022/06/25 10:42:59;;;;;;;0.32;0.32;;;;;;;;;;5022864;28;20052;-70
2022/06/25 10:45:24;;;;;;;1.20;0.40;;;;;;;;;;5021192;28;20112;-68
2022/06/25 10:47:52;;;;;;;0.65;0.30;;;;;;;;;;5022798;28;21304;-70
2022/06/25 10:50:21;;;;;;;3.38;0.50;;;;;;;;;;5021690;28;20033;-71
2022/06/25 10:53:10;;;;;;;0.30;0.30;;;;;;;;;;5022924;28;21210;-67
2022/06/25 10:55:47;;;;;;;0.77;0.70;;;;;;;;;;5009441;28;20131;-70
2022/06/25 10:58:17;;;;;;;0.57;0.47;;;;;;;;;;5023157;28;20494;-70
2022/06/25 11:00:50;;;;;;;0.88;0.40;;;;;;;;;;5022799;28;20052;-70
2022/06/25 11:03:17;;;;;;;0.63;0.55;;;;;;;;;;5022484;28;20552;-71
2022/06/25 11:05:45;;;;;;;2.58;0.50;;;;;;;;;;5003807;28;20112;-70
2022/06/25 11:08:12;;;;;;;0.30;0.30;;;;;;;;;;5024393;28;20037;-72
2022/06/25 11:10:39;;;;;;;0.77;0.50;;;;;;;;;;5023455;28;20030;-71
2022/06/25 11:13:05;;;;;;;0.47;0.47;;;;;;;;;;5015728;28;20045;-73
2022/06/25 11:15:42;;;;;;;0.63;0.40;;;;;;;;;;5023756;28;20037;-71
2022/06/25 11:18:12;;;;;;;0.52;0.30;;;;;;;;;;5021195;28;20037;-71
2022/06/25 11:20:38;;;;;;;0.65;0.30;;;;;;;;;;5022628;28;20045;-71
2022/06/25 11:23:04;;;;;;;0.93;0.35;;;;;;;;;;5022417;28;20768;-71
2022/06/25 11:28:51;;;;;;;2.30;0.50;;;;;;;;;;5021483;28;20033;-70
2022/06/25 11:31:21;;;;;;;1.58;0.40;;;;;;;;;;5021519;28;20482;-71
2022/06/25 11:33:48;;;;;;;0.85;0.50;;;;;;;;;;5021718;28;20045;-71
2022/06/25 11:36:15;;;;;;;0.82;0.43;;;;;;;;;;5021095;28;20099;-71
2022/06/25 11:38:43;;;;;;;0.80;0.57;;;;;;;;;;5020525;28;20076;-70
2022/06/25 11:41:30;;;;;;;0.63;0.40;;;;;;;;;;5021158;28;20033;-71
2022/06/25 11:44:04;;;;;;;0.85;0.52;;;;;;;;;;5021897;28;20116;-71
2022/06/25 11:46:29;;;;;;;1.60;0.52;;;;;;;;;;5020346;28;20593;-71
2022/06/25 11:48:57;;;;;;;0.70;0.50;;;;;;;;;;5020935;28;20025;-71
2022/06/25 11:51:24;;;;;;;1.35;0.50;;;;;;;;;;5020939;28;20513;-70
2022/06/25 11:53:51;;;;;;;0.77;0.40;;;;;;;;;;5021828;28;20040;-71
2022/06/25 11:56:16;;;;;;;0.25;0.25;;;;;;;;;;5020764;28;20087;-70
2022/06/25 11:58:42;;;;;;;0.77;0.40;;;;;;;;;;5022076;28;20538;-70
2022/06/25 12:01:08;;;;;;;0.30;0.30;;;;;;;;;;5019989;28;20970;-70
2022/06/25 12:03:34;;;;;;;3.13;0.90;;;;;;;;;;5021215;28;20086;-69
2022/06/25 12:06:01;;;;;;;1.05;0.50;;;;;;;;;;5021409;28;20041;-70
2022/06/25 12:08:28;;;;;;;1.55;0.50;;;;;;;;;;5021404;28;20045;-69
2022/06/25 12:10:55;;;;;;;0.63;0.40;;;;;;;;;;5021142;28;20049;-69
2022/06/25 12:13:21;;;;;;;2.45;0.38;;;;;;;;;;5019319;28;20037;-70
2022/06/25 12:15:47;;;;;;;0.60;0.60;;;;;;;;;;5020726;28;20033;-70
2022/06/25 12:18:13;;;;;;;0.70;0.40;;;;;;;;;;5021150;28;20649;-70
2022/06/25 12:20:55;;;;;;;0.30;0.30;;;;;;;;;;5021512;28;20095;-69
2022/06/25 12:23:20;;;;;;;0.40;0.40;;;;;;;;;;5020307;28;20072;-70
2022/06/25 12:25:47;;;;;;;1.35;0.40;;;;;;;;;;5020234;28;20081;-70
2022/06/25 12:28:13;;;;;;;1.00;0.40;;;;;;;;;;5020981;28;20025;-70
2022/06/25 12:30:39;;;;;;;0.50;0.50;;;;;;;;;;5021094;28;20457;-70
2022/06/25 12:33:09;;;;;;;1.52;0.50;;;;;;;;;;5020525;28;20045;-70
2022/06/25 12:35:40;;;;;;;0.30;0.30;;;;;;;;;;5020448;28;20044;-70
2022/06/25 12:38:08;;;;;;;1.35;0.50;;;;;;;;;;5019640;28;20037;-70
2022/06/25 12:40:42;;;;;;;0.40;0.30;;;;;;;;;;5020814;28;20045;-70
2022/06/25 12:43:09;;;;;;;0.90;0.40;;;;;;;;;;5002616;28;20034;-70
2022/06/25 12:45:36;;;;;;;0.68;0.55;;;;;;;;;;5019356;28;20044;-70
2022/06/25 12:48:03;;;;;;;0.45;0.45;;;;;;;;;;5020460;28;20568;-71
2022/06/25 12:50:31;;;;;;;1.58;0.40;;;;;;;;;;5020322;28;20430;-71
2022/06/25 12:53:09;;;;;;;1.02;0.30;;;;;;;;;;5020111;28;20029;-71
2022/06/25 12:55:35;;;;;;;0.93;0.50;;;;;;;;;;5018938;28;20071;-70
2022/06/25 12:58:06;;;;;;;1.65;0.57;;;;;;;;;;5020912;28;20033;-71
2022/06/25 13:00:34;;;;;;;0.40;0.40;;;;;;;;;;5020332;28;20081;-71
2022/06/25 13:03:00;;;;;;;0.75;0.50;;;;;;;;;;5000564;28;20084;-71
2022/06/25 13:05:26;;;;;;;0.32;0.32;;;;;;;;;;4998315;28;20804;-70
2022/06/25 13:07:51;;;;;;;1.35;0.50;;;;;;;;;;5016915;28;20044;-71
2022/06/25 13:10:17;;;;;;;1.45;0.45;;;;;;;;;;5016731;28;20040;-70
2022/06/25 13:12:43;;;;;;;0.98;0.50;;;;;;;;;;5017160;28;20059;-71
2022/06/25 13:15:10;;;;;;;0.82;0.50;;;;;;;;;;5016686;28;20084;-71
2022/06/25 13:17:36;;;;;;;0.40;0.35;;;;;;;;;;5017498;28;20124;-71
2022/06/25 13:20:03;;;;;;;1.17;0.40;;;;;;;;;;5020399;28;20065;-71
2022/06/25 13:22:29;;;;;;;0.75;0.60;;;;;;;;;;5020406;28;20049;-70
2022/06/25 13:24:55;;;;;;;0.75;0.40;;;;;;;;;;5019996;28;20084;-71
2022/06/25 13:27:20;;;;;;;1.40;0.60;;;;;;;;;;5018522;28;20091;-71
2022/06/25 13:29:46;;;;;;;0.68;0.55;;;;;;;;;;5020054;28;20041;-71
2022/06/25 13:32:16;;;;;;;0.30;0.30;;;;;;;;;;5019740;28;20042;-71
2022/06/25 13:34:46;;;;;;;1.35;0.43;;;;;;;;;;5019724;28;20048;-71
2022/06/25 13:37:12;;;;;;;0.30;0.30;;;;;;;;;;5019447;28;20111;-71
2022/06/25 13:39:37;;;;;;;0.35;0.35;;;;;;;;;;5017945;28;20513;-71
2022/06/25 13:42:03;;;;;;;0.73;0.50;;;;;;;;;;5020557;28;20045;-71
2022/06/25 13:44:30;;;;;;;1.00;0.50;;;;;;;;;;5020314;28;20103;-71
2022/06/25 13:46:56;;;;;;;0.30;0.30;;;;;;;;;;5019287;28;20041;-71
2022/06/25 13:49:22;;;;;;;0.40;0.40;;;;;;;;;;5023983;28;20114;-71
2022/06/25 13:51:50;;;;;;;1.92;0.40;;;;;;;;;;5023574;28;20033;-72
2022/06/25 13:54:15;;;;;;;0.40;0.40;;;;;;;;;;5017526;28;20045;-71
2022/06/25 13:56:41;;;;;;;0.40;0.30;;;;;;;;;;5023505;28;20095;-71
2022/06/25 13:59:07;;;;;;;0.70;0.40;;;;;;;;;;5024170;28;20037;-71
2022/06/25 14:01:33;;;;;;;0.73;0.40;;;;;;;;;;5022503;28;20037;-70
2022/06/25 14:03:59;;;;;;;1.85;0.60;;;;;;;;;;5021641;28;20457;-72
2022/06/25 14:06:24;;;;;;;0.75;0.55;;;;;;;;;;5022455;28;20029;-70
2022/06/25 14:08:50;;;;;;;0.20;0.20;;;;;;;;;;5022432;28;20064;-70
2022/06/25 14:11:15;;;;;;;0.47;0.47;;;;;;;;;;5021756;28;20033;-70
2022/06/25 14:13:41;;;;;;;2.38;0.40;;;;;;;;;;5022664;28;20061;-70
2022/06/25 14:16:07;;;;;;;0.80;0.50;;;;;;;;;;5021280;28;20029;-70
2022/06/25 14:18:33;;;;;;;0.70;0.70;;;;;;;;;;5021246;28;20037;-70
2022/06/25 14:21:01;;;;;;;0.45;0.40;;;;;;;;;;5022343;28;20074;-70
2022/06/25 14:23:27;;;;;;;0.50;0.50;;;;;;;;;;5021178;28;20159;-69
2022/06/25 14:25:53;;;;;;;1.70;0.57;;;;;;;;;;5021674;28;20132;-70
2022/06/25 14:28:18;;;;;;;1.10;0.40;;;;;;;;;;5022276;28;20124;-70
2022/06/25 14:30:44;;;;;;;0.50;0.40;;;;;;;;;;5021810;28;20129;-71
2022/06/25 14:33:09;;;;;;;0.65;0.38;;;;;;;;;;5021976;28;20037;-71
2022/06/25 14:35:35;;;;;;;0.38;0.30;;;;;;;;;;5021484;28;20646;-71
2022/06/25 14:43:30;;;;;;;1.58;0.50;;;;;;;;;;5022150;28;20038;-71
2022/06/25 14:45:57;;;;;;;0.28;0.28;;;;;;;;;;5019880;28;20810;-70
2022/06/25 14:48:23;;;;;;;1.15;0.47;;;;;;;;;;5022672;28;20407;-70
2022/06/25 14:50:48;;;;;;;3.72;0.38;;;;;;;;;;5021597;28;20033;-70
2022/06/25 14:53:14;;;;;;;0.40;0.40;;;;;;;;;;5021123;28;20048;-71
2022/06/25 14:55:39;;;;;;;0.40;0.40;;;;;;;;;;5020315;28;20033;-70
2022/06/25 14:58:05;;;;;;;0.30;0.30;;;;;;;;;;5021891;28;20130;-70
2022/06/25 15:00:31;;;;;;;2.95;0.40;;;;;;;;;;5019612;28;20034;-70
2022/06/25 15:02:57;;;;;;;0.82;0.40;;;;;;;;;;5021111;28;20033;-70
2022/06/25 15:05:28;;;;;;;1.90;0.60;;;;;;;;;;5021311;28;20056;-70